<?xml version="1.0" encoding="UTF-8" standalone="no" ?>
<gpx xmlns="http://www.topografix.com/GPX/1/1" xmlns:xsi="http://www.w3.org/2001/XMLSchema-instance" xsi:schemaLocation="http://www.topografix.com/GPX/1/1 http://www.topografix.com/GPX/1/1/gpx.xsd" version="1.1" creator="VisuGPX - https://www.visugpx.com">
  <metadata>
    <name>20180502-Pic des Quatre Termes</name>
    <desc><![CDATA[Collective du CAF de Pau au Pic des Quatre Termes au départ de La Mongie.]]></desc>
  </metadata>
  <wpt lat="42.90975" lon="0.17957">
    <ele>1750.64</ele>
    <name><![CDATA[0000052]]></name>
    <type><![CDATA[Point de départ]]></type>
  </wpt>
  <wpt lat="42.90975" lon="0.17974">
    <ele>1747.55</ele>
    <name><![CDATA[0000053]]></name>
    <desc><![CDATA[<p><br /><h3>Nom: Segment: 1</h3><br />Heure de départ: 05/02/2018 08:36<br/>Heure d'arrivée: 05/02/2018 12:43<br/>Distance: 7,6km (04:07)<br/>Temps déplacement: 01:40<br/>Vitesse moyenne: 1,85 km/h<br/>Vitesse moyenne mouv.: 4,1 km/h<br/>Vitesse Max.: 26,08 km/h<br/>Altitude minimale: 1745 m<br/>Altitude maximale: 2723 m<br/>Vitesse de montée: 387,2 m/h<br/>Vitesse de descente: -697,5 m/h<br/>Gain d'altitude: 1025 m<br/>Perte d'altitude: -1017 m<br/>Temps de montée: 02:38<br/>Temps de descente: 01:27<br/></p>]]></desc>
    <type><![CDATA[Point d'arrivée]]></type>
  </wpt>
  <trk>
    <name><![CDATA[2018-05-02 08:36]]></name>
    <desc><![CDATA[<p>Heure de départ: 05/02/2018 08:36<br/>Heure d'arrivée: 05/02/2018 12:43<br/>Distance: 7,6 km (04:07)<br/>Temps déplacement: 01:40<br/>Vitesse moyenne: 1,85 km/h<br/>Vitesse moyenne mouv.: 4,55 km/h<br/>Vitesse Max.: 26,08 km/h<br/>Altitude minimale: 1745 m<br/>Altitude maximale: 2723 m<br/>Vitesse de montée: 380 m/h<br/>Vitesse de descente: -702,6 m/h<br/>Gain d'altitude: 1018 m<br/>Perte d'altitude: -1015 m<br/>Temps de montée: 02:40<br/>Temps de descente: 01:26<br/></p><hr align="center" width="480" style="height: 2px; width: 517px"/>]]></desc>
    <trkseg>
      <trkpt lat="42.90975" lon="0.17957">
        <ele>1750.64</ele>
        <time>2018-05-02T06:36:09Z</time>
      </trkpt>
      <trkpt lat="42.90964" lon="0.17976">
        <ele>1745.52</ele>
        <time>2018-05-02T06:36:46Z</time>
      </trkpt>
      <trkpt lat="42.90947" lon="0.17988">
        <ele>1748.46</ele>
        <time>2018-05-02T06:37:10Z</time>
      </trkpt>
      <trkpt lat="42.9093" lon="0.17979">
        <ele>1751.22</ele>
        <time>2018-05-02T06:37:29Z</time>
      </trkpt>
      <trkpt lat="42.90913" lon="0.17986">
        <ele>1753.21</ele>
        <time>2018-05-02T06:37:50Z</time>
      </trkpt>
      <trkpt lat="42.90904" lon="0.18009">
        <ele>1756.21</ele>
        <time>2018-05-02T06:39:28Z</time>
      </trkpt>
      <trkpt lat="42.90891" lon="0.18026">
        <ele>1758.52</ele>
        <time>2018-05-02T06:39:52Z</time>
      </trkpt>
      <trkpt lat="42.9088" lon="0.18046">
        <ele>1758.82</ele>
        <time>2018-05-02T06:40:12Z</time>
      </trkpt>
      <trkpt lat="42.90873" lon="0.18069">
        <ele>1763.41</ele>
        <time>2018-05-02T06:40:36Z</time>
      </trkpt>
      <trkpt lat="42.90857" lon="0.18082">
        <ele>1767.22</ele>
        <time>2018-05-02T06:41:09Z</time>
      </trkpt>
      <trkpt lat="42.90839" lon="0.18076">
        <ele>1771.31</ele>
        <time>2018-05-02T06:41:45Z</time>
      </trkpt>
      <trkpt lat="42.90824" lon="0.1809">
        <ele>1776.2</ele>
        <time>2018-05-02T06:42:18Z</time>
      </trkpt>
      <trkpt lat="42.90806" lon="0.18092">
        <ele>1779.52</ele>
        <time>2018-05-02T06:42:44Z</time>
      </trkpt>
      <trkpt lat="42.90788" lon="0.18088">
        <ele>1786.52</ele>
        <time>2018-05-02T06:43:12Z</time>
      </trkpt>
      <trkpt lat="42.9077" lon="0.18084">
        <ele>1792.22</ele>
        <time>2018-05-02T06:43:44Z</time>
      </trkpt>
      <trkpt lat="42.90752" lon="0.18088">
        <ele>1793.52</ele>
        <time>2018-05-02T06:44:09Z</time>
      </trkpt>
      <trkpt lat="42.90735" lon="0.18097">
        <ele>1800.55</ele>
        <time>2018-05-02T06:44:35Z</time>
      </trkpt>
      <trkpt lat="42.90717" lon="0.18104">
        <ele>1803.43</ele>
        <time>2018-05-02T06:45:06Z</time>
      </trkpt>
      <trkpt lat="42.90699" lon="0.18099">
        <ele>1810.19</ele>
        <time>2018-05-02T06:45:38Z</time>
      </trkpt>
      <trkpt lat="42.90682" lon="0.18109">
        <ele>1812.22</ele>
        <time>2018-05-02T06:46:09Z</time>
      </trkpt>
      <trkpt lat="42.90668" lon="0.18092">
        <ele>1827.28</ele>
        <time>2018-05-02T06:46:44Z</time>
      </trkpt>
      <trkpt lat="42.90652" lon="0.18082">
        <ele>1832.49</ele>
        <time>2018-05-02T06:47:08Z</time>
      </trkpt>
      <trkpt lat="42.90633" lon="0.18084">
        <ele>1836.58</ele>
        <time>2018-05-02T06:47:33Z</time>
      </trkpt>
      <trkpt lat="42.90616" lon="0.18075">
        <ele>1842.22</ele>
        <time>2018-05-02T06:47:54Z</time>
      </trkpt>
      <trkpt lat="42.90599" lon="0.18065">
        <ele>1847.21</ele>
        <time>2018-05-02T06:48:17Z</time>
      </trkpt>
      <trkpt lat="42.90582" lon="0.18054">
        <ele>1852.5</ele>
        <time>2018-05-02T06:48:48Z</time>
      </trkpt>
      <trkpt lat="42.90563" lon="0.18049">
        <ele>1855.82</ele>
        <time>2018-05-02T06:49:11Z</time>
      </trkpt>
      <trkpt lat="42.90545" lon="0.18047">
        <ele>1865.51</ele>
        <time>2018-05-02T06:49:37Z</time>
      </trkpt>
      <trkpt lat="42.90537" lon="0.18024">
        <ele>1862.51</ele>
        <time>2018-05-02T06:50:25Z</time>
      </trkpt>
      <trkpt lat="42.90545" lon="0.18002">
        <ele>1862.51</ele>
        <time>2018-05-02T06:50:57Z</time>
      </trkpt>
      <trkpt lat="42.90527" lon="0.17996">
        <ele>1875.42</ele>
        <time>2018-05-02T06:51:40Z</time>
      </trkpt>
      <trkpt lat="42.9051" lon="0.18003">
        <ele>1882.72</ele>
        <time>2018-05-02T06:52:10Z</time>
      </trkpt>
      <trkpt lat="42.905" lon="0.17982">
        <ele>1887.43</ele>
        <time>2018-05-02T06:53:24Z</time>
      </trkpt>
      <trkpt lat="42.90485" lon="0.17968">
        <ele>1902.13</ele>
        <time>2018-05-02T06:54:22Z</time>
      </trkpt>
      <trkpt lat="42.90469" lon="0.17954">
        <ele>1909.82</ele>
        <time>2018-05-02T06:55:08Z</time>
      </trkpt>
      <trkpt lat="42.90455" lon="0.1797">
        <ele>1910.23</ele>
        <time>2018-05-02T06:55:39Z</time>
      </trkpt>
      <trkpt lat="42.90445" lon="0.17948">
        <ele>1923.22</ele>
        <time>2018-05-02T06:56:28Z</time>
      </trkpt>
      <trkpt lat="42.90427" lon="0.17952">
        <ele>1928.73</ele>
        <time>2018-05-02T06:57:27Z</time>
      </trkpt>
      <trkpt lat="42.90413" lon="0.17935">
        <ele>1939.52</ele>
        <time>2018-05-02T06:58:13Z</time>
      </trkpt>
      <trkpt lat="42.90403" lon="0.17914">
        <ele>1944.52</ele>
        <time>2018-05-02T06:58:50Z</time>
      </trkpt>
      <trkpt lat="42.90385" lon="0.17921">
        <ele>1951.43</ele>
        <time>2018-05-02T06:59:25Z</time>
      </trkpt>
      <trkpt lat="42.90377" lon="0.17946">
        <ele>1955.52</ele>
        <time>2018-05-02T07:00:11Z</time>
      </trkpt>
      <trkpt lat="42.90372" lon="0.1797">
        <ele>1962.13</ele>
        <time>2018-05-02T07:00:33Z</time>
      </trkpt>
      <trkpt lat="42.90361" lon="0.17991">
        <ele>1970.19</ele>
        <time>2018-05-02T07:00:59Z</time>
      </trkpt>
      <trkpt lat="42.90349" lon="0.18009">
        <ele>1973.73</ele>
        <time>2018-05-02T07:02:25Z</time>
      </trkpt>
      <trkpt lat="42.90331" lon="0.18013">
        <ele>1979.61</ele>
        <time>2018-05-02T07:08:30Z</time>
      </trkpt>
      <trkpt lat="42.90313" lon="0.18018">
        <ele>1982.54</ele>
        <time>2018-05-02T07:08:53Z</time>
      </trkpt>
      <trkpt lat="42.903" lon="0.18035">
        <ele>1985.52</ele>
        <time>2018-05-02T07:09:22Z</time>
      </trkpt>
      <trkpt lat="42.90285" lon="0.1802">
        <ele>1989.53</ele>
        <time>2018-05-02T07:09:47Z</time>
      </trkpt>
      <trkpt lat="42.90267" lon="0.18023">
        <ele>1991.52</ele>
        <time>2018-05-02T07:10:17Z</time>
      </trkpt>
      <trkpt lat="42.90252" lon="0.18037">
        <ele>1995.55</ele>
        <time>2018-05-02T07:10:44Z</time>
      </trkpt>
      <trkpt lat="42.90235" lon="0.18049">
        <ele>2001.49</ele>
        <time>2018-05-02T07:11:17Z</time>
      </trkpt>
      <trkpt lat="42.90221" lon="0.18065">
        <ele>2005.43</ele>
        <time>2018-05-02T07:11:51Z</time>
      </trkpt>
      <trkpt lat="42.90208" lon="0.18081">
        <ele>2009.21</ele>
        <time>2018-05-02T07:12:25Z</time>
      </trkpt>
      <trkpt lat="42.90189" lon="0.18082">
        <ele>2019.2</ele>
        <time>2018-05-02T07:13:47Z</time>
      </trkpt>
      <trkpt lat="42.90172" lon="0.18087">
        <ele>2034.25</ele>
        <time>2018-05-02T07:15:13Z</time>
      </trkpt>
      <trkpt lat="42.90168" lon="0.18063">
        <ele>2034.52</ele>
        <time>2018-05-02T07:15:56Z</time>
      </trkpt>
      <trkpt lat="42.9015" lon="0.18056">
        <ele>2046.64</ele>
        <time>2018-05-02T07:17:28Z</time>
      </trkpt>
      <trkpt lat="42.90136" lon="0.18071">
        <ele>2065.43</ele>
        <time>2018-05-02T07:18:34Z</time>
      </trkpt>
      <trkpt lat="42.90127" lon="0.1805">
        <ele>2062.55</ele>
        <time>2018-05-02T07:19:20Z</time>
      </trkpt>
      <trkpt lat="42.90117" lon="0.18071">
        <ele>2075.51</ele>
        <time>2018-05-02T07:20:00Z</time>
      </trkpt>
      <trkpt lat="42.90108" lon="0.18093">
        <ele>2080.19</ele>
        <time>2018-05-02T07:20:30Z</time>
      </trkpt>
      <trkpt lat="42.901" lon="0.18115">
        <ele>2085.42</ele>
        <time>2018-05-02T07:20:59Z</time>
      </trkpt>
      <trkpt lat="42.90088" lon="0.18134">
        <ele>2089.16</ele>
        <time>2018-05-02T07:21:25Z</time>
      </trkpt>
      <trkpt lat="42.90078" lon="0.18155">
        <ele>2090.52</ele>
        <time>2018-05-02T07:21:48Z</time>
      </trkpt>
      <trkpt lat="42.90063" lon="0.18171">
        <ele>2093.52</ele>
        <time>2018-05-02T07:22:12Z</time>
      </trkpt>
      <trkpt lat="42.90048" lon="0.18184">
        <ele>2096.31</ele>
        <time>2018-05-02T07:22:30Z</time>
      </trkpt>
      <trkpt lat="42.9003" lon="0.1819">
        <ele>2102.52</ele>
        <time>2018-05-02T07:28:20Z</time>
      </trkpt>
      <trkpt lat="42.90013" lon="0.1818">
        <ele>2106.22</ele>
        <time>2018-05-02T07:28:47Z</time>
      </trkpt>
      <trkpt lat="42.89995" lon="0.18178">
        <ele>2110.43</ele>
        <time>2018-05-02T07:29:12Z</time>
      </trkpt>
      <trkpt lat="42.89978" lon="0.18185">
        <ele>2114.52</ele>
        <time>2018-05-02T07:29:32Z</time>
      </trkpt>
      <trkpt lat="42.89962" lon="0.18199">
        <ele>2113.22</ele>
        <time>2018-05-02T07:30:09Z</time>
      </trkpt>
      <trkpt lat="42.89945" lon="0.18191">
        <ele>2116.51</ele>
        <time>2018-05-02T07:30:38Z</time>
      </trkpt>
      <trkpt lat="42.89927" lon="0.18192">
        <ele>2122.52</ele>
        <time>2018-05-02T07:31:12Z</time>
      </trkpt>
      <trkpt lat="42.89908" lon="0.18192">
        <ele>2128.21</ele>
        <time>2018-05-02T07:31:44Z</time>
      </trkpt>
      <trkpt lat="42.89893" lon="0.18179">
        <ele>2133.51</ele>
        <time>2018-05-02T07:32:52Z</time>
      </trkpt>
      <trkpt lat="42.89877" lon="0.18163">
        <ele>2146.51</ele>
        <time>2018-05-02T07:34:01Z</time>
      </trkpt>
      <trkpt lat="42.8986" lon="0.18156">
        <ele>2157.2</ele>
        <time>2018-05-02T07:35:04Z</time>
      </trkpt>
      <trkpt lat="42.89848" lon="0.18137">
        <ele>2167.52</ele>
        <time>2018-05-02T07:36:22Z</time>
      </trkpt>
      <trkpt lat="42.89848" lon="0.18112">
        <ele>2173.52</ele>
        <time>2018-05-02T07:37:30Z</time>
      </trkpt>
      <trkpt lat="42.89829" lon="0.18113">
        <ele>2183.22</ele>
        <time>2018-05-02T07:38:15Z</time>
      </trkpt>
      <trkpt lat="42.89822" lon="0.1809">
        <ele>2195.43</ele>
        <time>2018-05-02T07:39:38Z</time>
      </trkpt>
      <trkpt lat="42.89804" lon="0.18081">
        <ele>2202.22</ele>
        <time>2018-05-02T07:40:43Z</time>
      </trkpt>
      <trkpt lat="42.89786" lon="0.18087">
        <ele>2208.22</ele>
        <time>2018-05-02T07:41:14Z</time>
      </trkpt>
      <trkpt lat="42.89768" lon="0.18093">
        <ele>2209.51</ele>
        <time>2018-05-02T07:41:43Z</time>
      </trkpt>
      <trkpt lat="42.89752" lon="0.18082">
        <ele>2211.82</ele>
        <time>2018-05-02T07:43:29Z</time>
      </trkpt>
      <trkpt lat="42.89734" lon="0.18074">
        <ele>2214.5</ele>
        <time>2018-05-02T07:45:33Z</time>
      </trkpt>
      <trkpt lat="42.89716" lon="0.18076">
        <ele>2212.83</ele>
        <time>2018-05-02T07:45:39Z</time>
      </trkpt>
      <trkpt lat="42.89702" lon="0.18091">
        <ele>2208.64</ele>
        <time>2018-05-02T07:45:46Z</time>
      </trkpt>
      <trkpt lat="42.89718" lon="0.18105">
        <ele>2195.52</ele>
        <time>2018-05-02T07:46:43Z</time>
      </trkpt>
      <trkpt lat="42.89707" lon="0.18125">
        <ele>2194.24</ele>
        <time>2018-05-02T07:47:18Z</time>
      </trkpt>
      <trkpt lat="42.8969" lon="0.18136">
        <ele>2187.53</ele>
        <time>2018-05-02T07:47:51Z</time>
      </trkpt>
      <trkpt lat="42.89676" lon="0.18151">
        <ele>2184.85</ele>
        <time>2018-05-02T07:48:23Z</time>
      </trkpt>
      <trkpt lat="42.89664" lon="0.18171">
        <ele>2182.52</ele>
        <time>2018-05-02T07:48:35Z</time>
      </trkpt>
      <trkpt lat="42.89652" lon="0.18189">
        <ele>2178.32</ele>
        <time>2018-05-02T07:49:19Z</time>
      </trkpt>
      <trkpt lat="42.89635" lon="0.18201">
        <ele>2174.82</ele>
        <time>2018-05-02T07:49:31Z</time>
      </trkpt>
      <trkpt lat="42.89617" lon="0.18195">
        <ele>2167.82</ele>
        <time>2018-05-02T07:49:46Z</time>
      </trkpt>
      <trkpt lat="42.89601" lon="0.18208">
        <ele>2155.92</ele>
        <time>2018-05-02T07:50:16Z</time>
      </trkpt>
      <trkpt lat="42.89593" lon="0.1823">
        <ele>2147.53</ele>
        <time>2018-05-02T07:50:40Z</time>
      </trkpt>
      <trkpt lat="42.89579" lon="0.18246">
        <ele>2143.52</ele>
        <time>2018-05-02T07:52:15Z</time>
      </trkpt>
      <trkpt lat="42.89562" lon="0.18256">
        <ele>2147.52</ele>
        <time>2018-05-02T07:52:44Z</time>
      </trkpt>
      <trkpt lat="42.89545" lon="0.18266">
        <ele>2152.49</ele>
        <time>2018-05-02T07:53:15Z</time>
      </trkpt>
      <trkpt lat="42.89528" lon="0.18275">
        <ele>2153.24</ele>
        <time>2018-05-02T07:53:45Z</time>
      </trkpt>
      <trkpt lat="42.89511" lon="0.18283">
        <ele>2161.31</ele>
        <time>2018-05-02T07:54:20Z</time>
      </trkpt>
      <trkpt lat="42.89494" lon="0.18292">
        <ele>2169.49</ele>
        <time>2018-05-02T07:54:55Z</time>
      </trkpt>
      <trkpt lat="42.89476" lon="0.183">
        <ele>2171.28</ele>
        <time>2018-05-02T07:55:24Z</time>
      </trkpt>
      <trkpt lat="42.89458" lon="0.18309">
        <ele>2178.79</ele>
        <time>2018-05-02T07:56:01Z</time>
      </trkpt>
      <trkpt lat="42.89464" lon="0.18285">
        <ele>2196.13</ele>
        <time>2018-05-02T07:56:46Z</time>
      </trkpt>
      <trkpt lat="42.89469" lon="0.18261">
        <ele>2205.5</ele>
        <time>2018-05-02T07:57:22Z</time>
      </trkpt>
      <trkpt lat="42.89471" lon="0.18236">
        <ele>2214.22</ele>
        <time>2018-05-02T07:57:53Z</time>
      </trkpt>
      <trkpt lat="42.89471" lon="0.1821">
        <ele>2231.43</ele>
        <time>2018-05-02T07:58:37Z</time>
      </trkpt>
      <trkpt lat="42.89454" lon="0.1822">
        <ele>2216.5</ele>
        <time>2018-05-02T07:59:22Z</time>
      </trkpt>
      <trkpt lat="42.89437" lon="0.18228">
        <ele>2216.22</ele>
        <time>2018-05-02T07:59:57Z</time>
      </trkpt>
      <trkpt lat="42.89419" lon="0.18234">
        <ele>2221.42</ele>
        <time>2018-05-02T08:00:28Z</time>
      </trkpt>
      <trkpt lat="42.89428" lon="0.18212">
        <ele>2244.4</ele>
        <time>2018-05-02T08:01:42Z</time>
      </trkpt>
      <trkpt lat="42.89423" lon="0.18188">
        <ele>2259.51</ele>
        <time>2018-05-02T08:03:50Z</time>
      </trkpt>
      <trkpt lat="42.89432" lon="0.18167">
        <ele>2264.6</ele>
        <time>2018-05-02T08:04:36Z</time>
      </trkpt>
      <trkpt lat="42.89442" lon="0.18146">
        <ele>2272.22</ele>
        <time>2018-05-02T08:05:12Z</time>
      </trkpt>
      <trkpt lat="42.89451" lon="0.18124">
        <ele>2276.52</ele>
        <time>2018-05-02T08:05:57Z</time>
      </trkpt>
      <trkpt lat="42.8944" lon="0.18105">
        <ele>2288.43</ele>
        <time>2018-05-02T08:07:16Z</time>
      </trkpt>
      <trkpt lat="42.89422" lon="0.18099">
        <ele>2296.43</ele>
        <time>2018-05-02T08:07:52Z</time>
      </trkpt>
      <trkpt lat="42.89416" lon="0.18076">
        <ele>2311.53</ele>
        <time>2018-05-02T08:09:37Z</time>
      </trkpt>
      <trkpt lat="42.89419" lon="0.18051">
        <ele>2316.52</ele>
        <time>2018-05-02T08:10:00Z</time>
      </trkpt>
      <trkpt lat="42.89419" lon="0.18026">
        <ele>2320.43</ele>
        <time>2018-05-02T08:10:24Z</time>
      </trkpt>
      <trkpt lat="42.89421" lon="0.18001">
        <ele>2322.73</ele>
        <time>2018-05-02T08:10:53Z</time>
      </trkpt>
      <trkpt lat="42.89413" lon="0.17979">
        <ele>2325.81</ele>
        <time>2018-05-02T08:19:46Z</time>
      </trkpt>
      <trkpt lat="42.89406" lon="0.17955">
        <ele>2326.52</ele>
        <time>2018-05-02T08:20:07Z</time>
      </trkpt>
      <trkpt lat="42.89396" lon="0.17934">
        <ele>2329.52</ele>
        <time>2018-05-02T08:20:29Z</time>
      </trkpt>
      <trkpt lat="42.89392" lon="0.17909">
        <ele>2331.52</ele>
        <time>2018-05-02T08:20:50Z</time>
      </trkpt>
      <trkpt lat="42.8939" lon="0.17884">
        <ele>2333.3</ele>
        <time>2018-05-02T08:21:12Z</time>
      </trkpt>
      <trkpt lat="42.89388" lon="0.17859">
        <ele>2334.52</ele>
        <time>2018-05-02T08:21:35Z</time>
      </trkpt>
      <trkpt lat="42.89386" lon="0.17834">
        <ele>2334.82</ele>
        <time>2018-05-02T08:22:01Z</time>
      </trkpt>
      <trkpt lat="42.89374" lon="0.17815">
        <ele>2334.22</ele>
        <time>2018-05-02T08:22:25Z</time>
      </trkpt>
      <trkpt lat="42.89362" lon="0.17796">
        <ele>2339.22</ele>
        <time>2018-05-02T08:22:53Z</time>
      </trkpt>
      <trkpt lat="42.89352" lon="0.17776">
        <ele>2346.52</ele>
        <time>2018-05-02T08:23:22Z</time>
      </trkpt>
      <trkpt lat="42.89339" lon="0.17757">
        <ele>2347.82</ele>
        <time>2018-05-02T08:23:52Z</time>
      </trkpt>
      <trkpt lat="42.89329" lon="0.17737">
        <ele>2354.52</ele>
        <time>2018-05-02T08:24:20Z</time>
      </trkpt>
      <trkpt lat="42.89314" lon="0.17723">
        <ele>2362.22</ele>
        <time>2018-05-02T08:25:11Z</time>
      </trkpt>
      <trkpt lat="42.89296" lon="0.17714">
        <ele>2369.19</ele>
        <time>2018-05-02T08:25:45Z</time>
      </trkpt>
      <trkpt lat="42.89279" lon="0.17708">
        <ele>2368.53</ele>
        <time>2018-05-02T08:26:10Z</time>
      </trkpt>
      <trkpt lat="42.89261" lon="0.17704">
        <ele>2366.53</ele>
        <time>2018-05-02T08:26:34Z</time>
      </trkpt>
      <trkpt lat="42.89243" lon="0.17703">
        <ele>2367.59</ele>
        <time>2018-05-02T08:27:01Z</time>
      </trkpt>
      <trkpt lat="42.89224" lon="0.17704">
        <ele>2371.49</ele>
        <time>2018-05-02T08:27:27Z</time>
      </trkpt>
      <trkpt lat="42.89206" lon="0.17702">
        <ele>2375.43</ele>
        <time>2018-05-02T08:28:03Z</time>
      </trkpt>
      <trkpt lat="42.89188" lon="0.17698">
        <ele>2375.52</ele>
        <time>2018-05-02T08:28:31Z</time>
      </trkpt>
      <trkpt lat="42.8917" lon="0.17705">
        <ele>2378.49</ele>
        <time>2018-05-02T08:29:02Z</time>
      </trkpt>
      <trkpt lat="42.89153" lon="0.17711">
        <ele>2382.52</ele>
        <time>2018-05-02T08:29:35Z</time>
      </trkpt>
      <trkpt lat="42.89136" lon="0.17721">
        <ele>2386.4</ele>
        <time>2018-05-02T08:30:10Z</time>
      </trkpt>
      <trkpt lat="42.89117" lon="0.17726">
        <ele>2395.19</ele>
        <time>2018-05-02T08:30:51Z</time>
      </trkpt>
      <trkpt lat="42.89103" lon="0.1771">
        <ele>2420.2</ele>
        <time>2018-05-02T08:31:48Z</time>
      </trkpt>
      <trkpt lat="42.89101" lon="0.17735">
        <ele>2438.22</ele>
        <time>2018-05-02T08:33:25Z</time>
      </trkpt>
      <trkpt lat="42.89107" lon="0.17758">
        <ele>2446.43</ele>
        <time>2018-05-02T08:34:00Z</time>
      </trkpt>
      <trkpt lat="42.89113" lon="0.17782">
        <ele>2453.45</ele>
        <time>2018-05-02T08:34:36Z</time>
      </trkpt>
      <trkpt lat="42.89095" lon="0.17791">
        <ele>2453.52</ele>
        <time>2018-05-02T08:35:51Z</time>
      </trkpt>
      <trkpt lat="42.89078" lon="0.1778">
        <ele>2458.49</ele>
        <time>2018-05-02T08:36:24Z</time>
      </trkpt>
      <trkpt lat="42.89062" lon="0.17768">
        <ele>2463.47</ele>
        <time>2018-05-02T08:37:01Z</time>
      </trkpt>
      <trkpt lat="42.89048" lon="0.17752">
        <ele>2465.52</ele>
        <time>2018-05-02T08:37:30Z</time>
      </trkpt>
      <trkpt lat="42.89032" lon="0.17738">
        <ele>2468.51</ele>
        <time>2018-05-02T08:37:57Z</time>
      </trkpt>
      <trkpt lat="42.89017" lon="0.17722">
        <ele>2473.53</ele>
        <time>2018-05-02T08:44:41Z</time>
      </trkpt>
      <trkpt lat="42.89003" lon="0.17707">
        <ele>2474.25</ele>
        <time>2018-05-02T08:45:00Z</time>
      </trkpt>
      <trkpt lat="42.88988" lon="0.17693">
        <ele>2473.52</ele>
        <time>2018-05-02T08:45:21Z</time>
      </trkpt>
      <trkpt lat="42.88979" lon="0.17671">
        <ele>2477.2</ele>
        <time>2018-05-02T08:45:45Z</time>
      </trkpt>
      <trkpt lat="42.88981" lon="0.17646">
        <ele>2480.21</ele>
        <time>2018-05-02T08:46:16Z</time>
      </trkpt>
      <trkpt lat="42.88982" lon="0.1762">
        <ele>2485.49</ele>
        <time>2018-05-02T08:46:38Z</time>
      </trkpt>
      <trkpt lat="42.88983" lon="0.17595">
        <ele>2489.43</ele>
        <time>2018-05-02T08:47:15Z</time>
      </trkpt>
      <trkpt lat="42.88991" lon="0.17573">
        <ele>2487.55</ele>
        <time>2018-05-02T08:47:48Z</time>
      </trkpt>
      <trkpt lat="42.88993" lon="0.17548">
        <ele>2492.19</ele>
        <time>2018-05-02T08:48:19Z</time>
      </trkpt>
      <trkpt lat="42.88979" lon="0.17533">
        <ele>2507.22</ele>
        <time>2018-05-02T08:48:58Z</time>
      </trkpt>
      <trkpt lat="42.88962" lon="0.17525">
        <ele>2511.41</ele>
        <time>2018-05-02T08:49:35Z</time>
      </trkpt>
      <trkpt lat="42.88944" lon="0.17527">
        <ele>2517.43</ele>
        <time>2018-05-02T08:50:26Z</time>
      </trkpt>
      <trkpt lat="42.88926" lon="0.17536">
        <ele>2523.44</ele>
        <time>2018-05-02T08:51:25Z</time>
      </trkpt>
      <trkpt lat="42.88912" lon="0.1752">
        <ele>2526.27</ele>
        <time>2018-05-02T08:51:53Z</time>
      </trkpt>
      <trkpt lat="42.88895" lon="0.17525">
        <ele>2539.61</ele>
        <time>2018-05-02T08:52:51Z</time>
      </trkpt>
      <trkpt lat="42.88877" lon="0.17531">
        <ele>2558.43</ele>
        <time>2018-05-02T08:53:47Z</time>
      </trkpt>
      <trkpt lat="42.88868" lon="0.17552">
        <ele>2564.52</ele>
        <time>2018-05-02T08:54:14Z</time>
      </trkpt>
      <trkpt lat="42.88856" lon="0.17572">
        <ele>2572.22</ele>
        <time>2018-05-02T08:54:44Z</time>
      </trkpt>
      <trkpt lat="42.88847" lon="0.17594">
        <ele>2575.55</ele>
        <time>2018-05-02T08:55:18Z</time>
      </trkpt>
      <trkpt lat="42.88828" lon="0.17597">
        <ele>2572.5</ele>
        <time>2018-05-02T08:55:58Z</time>
      </trkpt>
      <trkpt lat="42.88818" lon="0.17618">
        <ele>2587.22</ele>
        <time>2018-05-02T08:57:02Z</time>
      </trkpt>
      <trkpt lat="42.88802" lon="0.17605">
        <ele>2594.22</ele>
        <time>2018-05-02T08:58:21Z</time>
      </trkpt>
      <trkpt lat="42.88787" lon="0.17619">
        <ele>2620.22</ele>
        <time>2018-05-02T09:00:16Z</time>
      </trkpt>
      <trkpt lat="42.88782" lon="0.17643">
        <ele>2627.51</ele>
        <time>2018-05-02T09:00:53Z</time>
      </trkpt>
      <trkpt lat="42.88766" lon="0.17657">
        <ele>2629.82</ele>
        <time>2018-05-02T09:03:13Z</time>
      </trkpt>
      <trkpt lat="42.88758" lon="0.17679">
        <ele>2633.52</ele>
        <time>2018-05-02T09:03:56Z</time>
      </trkpt>
      <trkpt lat="42.88743" lon="0.17665">
        <ele>2640.43</ele>
        <time>2018-05-02T09:05:03Z</time>
      </trkpt>
      <trkpt lat="42.88729" lon="0.1765">
        <ele>2651.22</ele>
        <time>2018-05-02T09:06:47Z</time>
      </trkpt>
      <trkpt lat="42.88715" lon="0.17666">
        <ele>2657.52</ele>
        <time>2018-05-02T09:07:44Z</time>
      </trkpt>
      <trkpt lat="42.88703" lon="0.17646">
        <ele>2670.52</ele>
        <time>2018-05-02T09:10:16Z</time>
      </trkpt>
      <trkpt lat="42.88702" lon="0.17622">
        <ele>2681.43</ele>
        <time>2018-05-02T09:12:38Z</time>
      </trkpt>
      <trkpt lat="42.88703" lon="0.17597">
        <ele>2694.51</ele>
        <time>2018-05-02T09:25:49Z</time>
      </trkpt>
      <trkpt lat="42.88699" lon="0.17572">
        <ele>2709.52</ele>
        <time>2018-05-02T09:28:31Z</time>
      </trkpt>
      <trkpt lat="42.88696" lon="0.17548">
        <ele>2719.55</ele>
        <time>2018-05-02T09:32:10Z</time>
      </trkpt>
      <trkpt lat="42.88701" lon="0.17572">
        <ele>2723.52</ele>
        <time>2018-05-02T09:56:18Z</time>
      </trkpt>
      <trkpt lat="42.88704" lon="0.17596">
        <ele>2709.82</ele>
        <time>2018-05-02T09:58:00Z</time>
      </trkpt>
      <trkpt lat="42.88703" lon="0.17621">
        <ele>2694.52</ele>
        <time>2018-05-02T10:00:13Z</time>
      </trkpt>
      <trkpt lat="42.88718" lon="0.17638">
        <ele>2664.82</ele>
        <time>2018-05-02T10:09:38Z</time>
      </trkpt>
      <trkpt lat="42.88728" lon="0.17659">
        <ele>2660.92</ele>
        <time>2018-05-02T10:09:51Z</time>
      </trkpt>
      <trkpt lat="42.88736" lon="0.17637">
        <ele>2648.85</ele>
        <time>2018-05-02T10:10:47Z</time>
      </trkpt>
      <trkpt lat="42.88754" lon="0.1763">
        <ele>2644.61</ele>
        <time>2018-05-02T10:11:00Z</time>
      </trkpt>
      <trkpt lat="42.88767" lon="0.1761">
        <ele>2631.92</ele>
        <time>2018-05-02T10:11:39Z</time>
      </trkpt>
      <trkpt lat="42.88786" lon="0.17599">
        <ele>2624.72</ele>
        <time>2018-05-02T10:11:46Z</time>
      </trkpt>
      <trkpt lat="42.88801" lon="0.17582">
        <ele>2616.34</ele>
        <time>2018-05-02T10:11:52Z</time>
      </trkpt>
      <trkpt lat="42.88808" lon="0.17556">
        <ele>2611.95</ele>
        <time>2018-05-02T10:11:56Z</time>
      </trkpt>
      <trkpt lat="42.88812" lon="0.17528">
        <ele>2608.92</ele>
        <time>2018-05-02T10:12:00Z</time>
      </trkpt>
      <trkpt lat="42.88831" lon="0.17519">
        <ele>2601.87</ele>
        <time>2018-05-02T10:12:11Z</time>
      </trkpt>
      <trkpt lat="42.88849" lon="0.17525">
        <ele>2598.16</ele>
        <time>2018-05-02T10:12:15Z</time>
      </trkpt>
      <trkpt lat="42.88869" lon="0.17527">
        <ele>2595.56</ele>
        <time>2018-05-02T10:12:19Z</time>
      </trkpt>
      <trkpt lat="42.88889" lon="0.17523">
        <ele>2585.68</ele>
        <time>2018-05-02T10:12:24Z</time>
      </trkpt>
      <trkpt lat="42.88908" lon="0.17532">
        <ele>2551.86</ele>
        <time>2018-05-02T10:14:55Z</time>
      </trkpt>
      <trkpt lat="42.88926" lon="0.17537">
        <ele>2549.91</ele>
        <time>2018-05-02T10:14:59Z</time>
      </trkpt>
      <trkpt lat="42.88944" lon="0.17534">
        <ele>2543.64</ele>
        <time>2018-05-02T10:15:05Z</time>
      </trkpt>
      <trkpt lat="42.88962" lon="0.17537">
        <ele>2539.25</ele>
        <time>2018-05-02T10:15:09Z</time>
      </trkpt>
      <trkpt lat="42.88982" lon="0.1753">
        <ele>2535.32</ele>
        <time>2018-05-02T10:15:12Z</time>
      </trkpt>
      <trkpt lat="42.88989" lon="0.17559">
        <ele>2522.62</ele>
        <time>2018-05-02T10:15:26Z</time>
      </trkpt>
      <trkpt lat="42.88999" lon="0.17583">
        <ele>2521.62</ele>
        <time>2018-05-02T10:15:28Z</time>
      </trkpt>
      <trkpt lat="42.89007" lon="0.17608">
        <ele>2519.85</ele>
        <time>2018-05-02T10:15:31Z</time>
      </trkpt>
      <trkpt lat="42.89026" lon="0.17611">
        <ele>2508.89</ele>
        <time>2018-05-02T10:15:43Z</time>
      </trkpt>
      <trkpt lat="42.89021" lon="0.17636">
        <ele>2500.82</ele>
        <time>2018-05-02T10:15:59Z</time>
      </trkpt>
      <trkpt lat="42.8903" lon="0.1766">
        <ele>2488.68</ele>
        <time>2018-05-02T10:16:14Z</time>
      </trkpt>
      <trkpt lat="42.89021" lon="0.17687">
        <ele>2486.61</ele>
        <time>2018-05-02T10:16:21Z</time>
      </trkpt>
      <trkpt lat="42.89038" lon="0.17678">
        <ele>2478.93</ele>
        <time>2018-05-02T10:16:29Z</time>
      </trkpt>
      <trkpt lat="42.89051" lon="0.17696">
        <ele>2468.85</ele>
        <time>2018-05-02T10:16:49Z</time>
      </trkpt>
      <trkpt lat="42.89062" lon="0.17715">
        <ele>2465.61</ele>
        <time>2018-05-02T10:17:33Z</time>
      </trkpt>
      <trkpt lat="42.89064" lon="0.17689">
        <ele>2459.62</ele>
        <time>2018-05-02T10:17:40Z</time>
      </trkpt>
      <trkpt lat="42.89083" lon="0.17682">
        <ele>2451.86</ele>
        <time>2018-05-02T10:17:51Z</time>
      </trkpt>
      <trkpt lat="42.89097" lon="0.17709">
        <ele>2445.96</ele>
        <time>2018-05-02T10:17:57Z</time>
      </trkpt>
      <trkpt lat="42.89108" lon="0.17728">
        <ele>2443.64</ele>
        <time>2018-05-02T10:18:02Z</time>
      </trkpt>
      <trkpt lat="42.89126" lon="0.17736">
        <ele>2436.95</ele>
        <time>2018-05-02T10:18:09Z</time>
      </trkpt>
      <trkpt lat="42.89145" lon="0.17722">
        <ele>2432.59</ele>
        <time>2018-05-02T10:18:14Z</time>
      </trkpt>
      <trkpt lat="42.89171" lon="0.17724">
        <ele>2427.21</ele>
        <time>2018-05-02T10:18:17Z</time>
      </trkpt>
      <trkpt lat="42.89193" lon="0.17724">
        <ele>2423.05</ele>
        <time>2018-05-02T10:18:20Z</time>
      </trkpt>
      <trkpt lat="42.89212" lon="0.17729">
        <ele>2420.34</ele>
        <time>2018-05-02T10:18:28Z</time>
      </trkpt>
      <trkpt lat="42.89234" lon="0.17737">
        <ele>2402.62</ele>
        <time>2018-05-02T10:21:10Z</time>
      </trkpt>
      <trkpt lat="42.89254" lon="0.17744">
        <ele>2401.61</ele>
        <time>2018-05-02T10:21:14Z</time>
      </trkpt>
      <trkpt lat="42.89258" lon="0.17719">
        <ele>2397.24</ele>
        <time>2018-05-02T10:21:19Z</time>
      </trkpt>
      <trkpt lat="42.89263" lon="0.1769">
        <ele>2393.93</ele>
        <time>2018-05-02T10:21:23Z</time>
      </trkpt>
      <trkpt lat="42.89286" lon="0.17686">
        <ele>2391.83</ele>
        <time>2018-05-02T10:21:28Z</time>
      </trkpt>
      <trkpt lat="42.89305" lon="0.17687">
        <ele>2389.22</ele>
        <time>2018-05-02T10:21:31Z</time>
      </trkpt>
      <trkpt lat="42.89324" lon="0.17691">
        <ele>2385.59</ele>
        <time>2018-05-02T10:21:35Z</time>
      </trkpt>
      <trkpt lat="42.89332" lon="0.17719">
        <ele>2385.52</ele>
        <time>2018-05-02T10:21:39Z</time>
      </trkpt>
      <trkpt lat="42.89351" lon="0.17727">
        <ele>2383.91</ele>
        <time>2018-05-02T10:21:41Z</time>
      </trkpt>
      <trkpt lat="42.89372" lon="0.17734">
        <ele>2381.65</ele>
        <time>2018-05-02T10:21:44Z</time>
      </trkpt>
      <trkpt lat="42.89358" lon="0.17751">
        <ele>2376.56</ele>
        <time>2018-05-02T10:21:50Z</time>
      </trkpt>
      <trkpt lat="42.89344" lon="0.1777">
        <ele>2373.85</ele>
        <time>2018-05-02T10:21:56Z</time>
      </trkpt>
      <trkpt lat="42.89337" lon="0.17795">
        <ele>2372.53</ele>
        <time>2018-05-02T10:22:01Z</time>
      </trkpt>
      <trkpt lat="42.89331" lon="0.17821">
        <ele>2370.85</ele>
        <time>2018-05-02T10:22:05Z</time>
      </trkpt>
      <trkpt lat="42.89327" lon="0.17848">
        <ele>2368.85</ele>
        <time>2018-05-02T10:22:09Z</time>
      </trkpt>
      <trkpt lat="42.89329" lon="0.17877">
        <ele>2365.95</ele>
        <time>2018-05-02T10:22:12Z</time>
      </trkpt>
      <trkpt lat="42.89344" lon="0.17899">
        <ele>2364.83</ele>
        <time>2018-05-02T10:22:15Z</time>
      </trkpt>
      <trkpt lat="42.89359" lon="0.17914">
        <ele>2360.95</ele>
        <time>2018-05-02T10:22:20Z</time>
      </trkpt>
      <trkpt lat="42.89376" lon="0.1793">
        <ele>2354.85</ele>
        <time>2018-05-02T10:22:29Z</time>
      </trkpt>
      <trkpt lat="42.8939" lon="0.1795">
        <ele>2352.61</ele>
        <time>2018-05-02T10:22:35Z</time>
      </trkpt>
      <trkpt lat="42.89396" lon="0.17974">
        <ele>2349.62</ele>
        <time>2018-05-02T10:22:42Z</time>
      </trkpt>
      <trkpt lat="42.894" lon="0.17998">
        <ele>2344.95</ele>
        <time>2018-05-02T10:22:47Z</time>
      </trkpt>
      <trkpt lat="42.89401" lon="0.18023">
        <ele>2342.83</ele>
        <time>2018-05-02T10:22:51Z</time>
      </trkpt>
      <trkpt lat="42.89415" lon="0.18043">
        <ele>2339.94</ele>
        <time>2018-05-02T10:22:56Z</time>
      </trkpt>
      <trkpt lat="42.8941" lon="0.18067">
        <ele>2337.62</ele>
        <time>2018-05-02T10:23:01Z</time>
      </trkpt>
      <trkpt lat="42.89408" lon="0.18093">
        <ele>2329.86</ele>
        <time>2018-05-02T10:23:14Z</time>
      </trkpt>
      <trkpt lat="42.8943" lon="0.18092">
        <ele>2313.98</ele>
        <time>2018-05-02T10:23:37Z</time>
      </trkpt>
      <trkpt lat="42.89448" lon="0.18087">
        <ele>2309.53</ele>
        <time>2018-05-02T10:23:46Z</time>
      </trkpt>
      <trkpt lat="42.89436" lon="0.18108">
        <ele>2306.55</ele>
        <time>2018-05-02T10:23:53Z</time>
      </trkpt>
      <trkpt lat="42.89434" lon="0.18135">
        <ele>2297.92</ele>
        <time>2018-05-02T10:24:07Z</time>
      </trkpt>
      <trkpt lat="42.89426" lon="0.18158">
        <ele>2290.65</ele>
        <time>2018-05-02T10:24:14Z</time>
      </trkpt>
      <trkpt lat="42.89414" lon="0.18179">
        <ele>2283.86</ele>
        <time>2018-05-02T10:24:22Z</time>
      </trkpt>
      <trkpt lat="42.89422" lon="0.18201">
        <ele>2270.01</ele>
        <time>2018-05-02T10:24:39Z</time>
      </trkpt>
      <trkpt lat="42.89415" lon="0.18227">
        <ele>2265.92</ele>
        <time>2018-05-02T10:24:46Z</time>
      </trkpt>
      <trkpt lat="42.89434" lon="0.18223">
        <ele>2261.74</ele>
        <time>2018-05-02T10:24:53Z</time>
      </trkpt>
      <trkpt lat="42.89438" lon="0.1825">
        <ele>2255.62</ele>
        <time>2018-05-02T10:25:06Z</time>
      </trkpt>
      <trkpt lat="42.89456" lon="0.18245">
        <ele>2251.92</ele>
        <time>2018-05-02T10:25:11Z</time>
      </trkpt>
      <trkpt lat="42.89472" lon="0.1823">
        <ele>2247.85</ele>
        <time>2018-05-02T10:25:18Z</time>
      </trkpt>
      <trkpt lat="42.89492" lon="0.18227">
        <ele>2233.94</ele>
        <time>2018-05-02T10:27:07Z</time>
      </trkpt>
      <trkpt lat="42.89508" lon="0.18245">
        <ele>2228.94</ele>
        <time>2018-05-02T10:27:14Z</time>
      </trkpt>
      <trkpt lat="42.89526" lon="0.18252">
        <ele>2223.28</ele>
        <time>2018-05-02T10:27:19Z</time>
      </trkpt>
      <trkpt lat="42.89541" lon="0.18269">
        <ele>2216.22</ele>
        <time>2018-05-02T10:27:26Z</time>
      </trkpt>
      <trkpt lat="42.89558" lon="0.18253">
        <ele>2211.66</ele>
        <time>2018-05-02T10:27:30Z</time>
      </trkpt>
      <trkpt lat="42.8957" lon="0.18234">
        <ele>2206.25</ele>
        <time>2018-05-02T10:27:35Z</time>
      </trkpt>
      <trkpt lat="42.8959" lon="0.18237">
        <ele>2183.65</ele>
        <time>2018-05-02T10:27:49Z</time>
      </trkpt>
      <trkpt lat="42.89609" lon="0.18227">
        <ele>2172.98</ele>
        <time>2018-05-02T10:27:58Z</time>
      </trkpt>
      <trkpt lat="42.89624" lon="0.18204">
        <ele>2167.05</ele>
        <time>2018-05-02T10:28:02Z</time>
      </trkpt>
      <trkpt lat="42.89639" lon="0.18216">
        <ele>2164.64</ele>
        <time>2018-05-02T10:28:06Z</time>
      </trkpt>
      <trkpt lat="42.89652" lon="0.18234">
        <ele>2161.62</ele>
        <time>2018-05-02T10:28:12Z</time>
      </trkpt>
      <trkpt lat="42.89669" lon="0.18248">
        <ele>2157.94</ele>
        <time>2018-05-02T10:28:17Z</time>
      </trkpt>
      <trkpt lat="42.89679" lon="0.18269">
        <ele>2147.52</ele>
        <time>2018-05-02T10:32:30Z</time>
      </trkpt>
      <trkpt lat="42.89698" lon="0.18267">
        <ele>2145.64</ele>
        <time>2018-05-02T10:33:00Z</time>
      </trkpt>
      <trkpt lat="42.89719" lon="0.18258">
        <ele>2142.83</ele>
        <time>2018-05-02T10:33:08Z</time>
      </trkpt>
      <trkpt lat="42.89738" lon="0.18251">
        <ele>2141.55</ele>
        <time>2018-05-02T10:33:12Z</time>
      </trkpt>
      <trkpt lat="42.89758" lon="0.18251">
        <ele>2141.23</ele>
        <time>2018-05-02T10:33:17Z</time>
      </trkpt>
      <trkpt lat="42.89777" lon="0.18249">
        <ele>2140.61</ele>
        <time>2018-05-02T10:33:21Z</time>
      </trkpt>
      <trkpt lat="42.89793" lon="0.18262">
        <ele>2140.54</ele>
        <time>2018-05-02T10:33:25Z</time>
      </trkpt>
      <trkpt lat="42.89799" lon="0.18286">
        <ele>2139.82</ele>
        <time>2018-05-02T10:33:28Z</time>
      </trkpt>
      <trkpt lat="42.89815" lon="0.18303">
        <ele>2137.61</ele>
        <time>2018-05-02T10:33:34Z</time>
      </trkpt>
      <trkpt lat="42.89834" lon="0.18304">
        <ele>2133.86</ele>
        <time>2018-05-02T10:33:43Z</time>
      </trkpt>
      <trkpt lat="42.89851" lon="0.18294">
        <ele>2126.86</ele>
        <time>2018-05-02T10:33:51Z</time>
      </trkpt>
      <trkpt lat="42.89863" lon="0.1827">
        <ele>2121.34</ele>
        <time>2018-05-02T10:33:55Z</time>
      </trkpt>
      <trkpt lat="42.89873" lon="0.18243">
        <ele>2116.99</ele>
        <time>2018-05-02T10:33:58Z</time>
      </trkpt>
      <trkpt lat="42.89887" lon="0.1822">
        <ele>2114.85</ele>
        <time>2018-05-02T10:34:02Z</time>
      </trkpt>
      <trkpt lat="42.89905" lon="0.18211">
        <ele>2113.82</ele>
        <time>2018-05-02T10:34:06Z</time>
      </trkpt>
      <trkpt lat="42.89925" lon="0.18208">
        <ele>2113.61</ele>
        <time>2018-05-02T10:34:13Z</time>
      </trkpt>
      <trkpt lat="42.89946" lon="0.18198">
        <ele>2112.61</ele>
        <time>2018-05-02T10:34:19Z</time>
      </trkpt>
      <trkpt lat="42.8996" lon="0.18179">
        <ele>2108.62</ele>
        <time>2018-05-02T10:34:26Z</time>
      </trkpt>
      <trkpt lat="42.89977" lon="0.18164">
        <ele>2106.61</ele>
        <time>2018-05-02T10:34:31Z</time>
      </trkpt>
      <trkpt lat="42.89994" lon="0.18154">
        <ele>2105.61</ele>
        <time>2018-05-02T10:34:34Z</time>
      </trkpt>
      <trkpt lat="42.90012" lon="0.1815">
        <ele>2104.55</ele>
        <time>2018-05-02T10:34:37Z</time>
      </trkpt>
      <trkpt lat="42.90034" lon="0.1815">
        <ele>2103.59</ele>
        <time>2018-05-02T10:34:42Z</time>
      </trkpt>
      <trkpt lat="42.90054" lon="0.18147">
        <ele>2101.85</ele>
        <time>2018-05-02T10:34:47Z</time>
      </trkpt>
      <trkpt lat="42.90065" lon="0.18169">
        <ele>2097.53</ele>
        <time>2018-05-02T10:34:55Z</time>
      </trkpt>
      <trkpt lat="42.90084" lon="0.18173">
        <ele>2092.95</ele>
        <time>2018-05-02T10:35:01Z</time>
      </trkpt>
      <trkpt lat="42.90102" lon="0.18164">
        <ele>2087.92</ele>
        <time>2018-05-02T10:35:08Z</time>
      </trkpt>
      <trkpt lat="42.9011" lon="0.1814">
        <ele>2080.93</ele>
        <time>2018-05-02T10:35:43Z</time>
      </trkpt>
      <trkpt lat="42.90123" lon="0.18119">
        <ele>2076.22</ele>
        <time>2018-05-02T10:35:49Z</time>
      </trkpt>
      <trkpt lat="42.90142" lon="0.18118">
        <ele>2066.65</ele>
        <time>2018-05-02T10:36:01Z</time>
      </trkpt>
      <trkpt lat="42.90153" lon="0.18099">
        <ele>2063.94</ele>
        <time>2018-05-02T10:36:06Z</time>
      </trkpt>
      <trkpt lat="42.90166" lon="0.18119">
        <ele>2063.52</ele>
        <time>2018-05-02T10:36:12Z</time>
      </trkpt>
      <trkpt lat="42.90184" lon="0.18124">
        <ele>2060.85</ele>
        <time>2018-05-02T10:36:18Z</time>
      </trkpt>
      <trkpt lat="42.90203" lon="0.18126">
        <ele>2059.61</ele>
        <time>2018-05-02T10:36:22Z</time>
      </trkpt>
      <trkpt lat="42.90224" lon="0.18118">
        <ele>2049.92</ele>
        <time>2018-05-02T10:36:32Z</time>
      </trkpt>
      <trkpt lat="42.90241" lon="0.18125">
        <ele>2035.69</ele>
        <time>2018-05-02T10:36:42Z</time>
      </trkpt>
      <trkpt lat="42.90259" lon="0.18107">
        <ele>2025.29</ele>
        <time>2018-05-02T10:36:50Z</time>
      </trkpt>
      <trkpt lat="42.90265" lon="0.18078">
        <ele>2019.59</ele>
        <time>2018-05-02T10:36:53Z</time>
      </trkpt>
      <trkpt lat="42.90275" lon="0.18056">
        <ele>2012.41</ele>
        <time>2018-05-02T10:36:56Z</time>
      </trkpt>
      <trkpt lat="42.90284" lon="0.18032">
        <ele>1999.89</ele>
        <time>2018-05-02T10:37:00Z</time>
      </trkpt>
      <trkpt lat="42.90299" lon="0.18014">
        <ele>1992.27</ele>
        <time>2018-05-02T10:37:04Z</time>
      </trkpt>
      <trkpt lat="42.90317" lon="0.18">
        <ele>1981.92</ele>
        <time>2018-05-02T10:38:00Z</time>
      </trkpt>
      <trkpt lat="42.9033" lon="0.17981">
        <ele>1977.34</ele>
        <time>2018-05-02T10:38:03Z</time>
      </trkpt>
      <trkpt lat="42.9035" lon="0.17975">
        <ele>1973.96</ele>
        <time>2018-05-02T10:38:06Z</time>
      </trkpt>
      <trkpt lat="42.90373" lon="0.17969">
        <ele>1969.95</ele>
        <time>2018-05-02T10:38:10Z</time>
      </trkpt>
      <trkpt lat="42.90385" lon="0.17948">
        <ele>1963.37</ele>
        <time>2018-05-02T10:38:14Z</time>
      </trkpt>
      <trkpt lat="42.90403" lon="0.17934">
        <ele>1953.48</ele>
        <time>2018-05-02T10:38:18Z</time>
      </trkpt>
      <trkpt lat="42.90424" lon="0.17926">
        <ele>1949.39</ele>
        <time>2018-05-02T10:38:23Z</time>
      </trkpt>
      <trkpt lat="42.90442" lon="0.17914">
        <ele>1937.81</ele>
        <time>2018-05-02T10:38:27Z</time>
      </trkpt>
      <trkpt lat="42.90461" lon="0.17918">
        <ele>1932.09</ele>
        <time>2018-05-02T10:38:30Z</time>
      </trkpt>
      <trkpt lat="42.90479" lon="0.17913">
        <ele>1922.48</ele>
        <time>2018-05-02T10:38:35Z</time>
      </trkpt>
      <trkpt lat="42.90501" lon="0.17914">
        <ele>1915.35</ele>
        <time>2018-05-02T10:38:39Z</time>
      </trkpt>
      <trkpt lat="42.9052" lon="0.17904">
        <ele>1904.44</ele>
        <time>2018-05-02T10:38:43Z</time>
      </trkpt>
      <trkpt lat="42.90537" lon="0.17888">
        <ele>1894.69</ele>
        <time>2018-05-02T10:38:47Z</time>
      </trkpt>
      <trkpt lat="42.90557" lon="0.1788">
        <ele>1883.7</ele>
        <time>2018-05-02T10:38:51Z</time>
      </trkpt>
      <trkpt lat="42.90576" lon="0.17877">
        <ele>1877.39</ele>
        <time>2018-05-02T10:38:54Z</time>
      </trkpt>
      <trkpt lat="42.90594" lon="0.17856">
        <ele>1865.69</ele>
        <time>2018-05-02T10:38:58Z</time>
      </trkpt>
      <trkpt lat="42.90616" lon="0.17864">
        <ele>1860.65</ele>
        <time>2018-05-02T10:39:02Z</time>
      </trkpt>
      <trkpt lat="42.90639" lon="0.1786">
        <ele>1854.56</ele>
        <time>2018-05-02T10:39:06Z</time>
      </trkpt>
      <trkpt lat="42.90661" lon="0.17861">
        <ele>1848.07</ele>
        <time>2018-05-02T10:39:10Z</time>
      </trkpt>
      <trkpt lat="42.90677" lon="0.17852">
        <ele>1842.52</ele>
        <time>2018-05-02T10:39:36Z</time>
      </trkpt>
      <trkpt lat="42.90694" lon="0.17838">
        <ele>1837.85</ele>
        <time>2018-05-02T10:40:49Z</time>
      </trkpt>
      <trkpt lat="42.90714" lon="0.1784">
        <ele>1836.32</ele>
        <time>2018-05-02T10:40:56Z</time>
      </trkpt>
      <trkpt lat="42.90736" lon="0.17834">
        <ele>1831.87</ele>
        <time>2018-05-02T10:41:02Z</time>
      </trkpt>
      <trkpt lat="42.90755" lon="0.17827">
        <ele>1830.79</ele>
        <time>2018-05-02T10:41:07Z</time>
      </trkpt>
      <trkpt lat="42.90773" lon="0.17834">
        <ele>1823.45</ele>
        <time>2018-05-02T10:41:12Z</time>
      </trkpt>
      <trkpt lat="42.90793" lon="0.1784">
        <ele>1810.39</ele>
        <time>2018-05-02T10:41:18Z</time>
      </trkpt>
      <trkpt lat="42.90815" lon="0.17856">
        <ele>1801.99</ele>
        <time>2018-05-02T10:41:23Z</time>
      </trkpt>
      <trkpt lat="42.90831" lon="0.1787">
        <ele>1797.28</ele>
        <time>2018-05-02T10:41:26Z</time>
      </trkpt>
      <trkpt lat="42.90849" lon="0.17883">
        <ele>1794.17</ele>
        <time>2018-05-02T10:41:29Z</time>
      </trkpt>
      <trkpt lat="42.90868" lon="0.17891">
        <ele>1791.02</ele>
        <time>2018-05-02T10:41:32Z</time>
      </trkpt>
      <trkpt lat="42.90886" lon="0.179">
        <ele>1787.95</ele>
        <time>2018-05-02T10:41:35Z</time>
      </trkpt>
      <trkpt lat="42.90903" lon="0.17914">
        <ele>1783.27</ele>
        <time>2018-05-02T10:41:39Z</time>
      </trkpt>
      <trkpt lat="42.90922" lon="0.17925">
        <ele>1776.95</ele>
        <time>2018-05-02T10:41:44Z</time>
      </trkpt>
      <trkpt lat="42.90938" lon="0.17935">
        <ele>1758.55</ele>
        <time>2018-05-02T10:42:42Z</time>
      </trkpt>
      <trkpt lat="42.90942" lon="0.1796">
        <ele>1756.52</ele>
        <time>2018-05-02T10:43:01Z</time>
      </trkpt>
      <trkpt lat="42.90957" lon="0.17975">
        <ele>1754.5</ele>
        <time>2018-05-02T10:43:16Z</time>
      </trkpt>
      <trkpt lat="42.90975" lon="0.17974">
        <ele>1747.55</ele>
        <time>2018-05-02T10:43:43Z</time>
      </trkpt>
    </trkseg>
  </trk>
</gpx>